KEVU

Northwest Missouri Regional Airport

Maryville, Missouri, USA
METAR KEVU 181615Z AUTO 19012G15KT 10SM CLR 16/M06 A3048 RMK AO2
Observed Flight Rules
Oct-18 @ 16:15 UTC (22 minutes ago) Visual Flight Rules
Wind Visibility Clouds
190° at 12 knots
 Gusting to 15 knots
10 miles
  • Clear skies
Temperatures Readings
Current 16°C / 61°F
Dewpoint -6°C / 21°F
Humidity 22%
Altimeter 30.48" Hg
Pressure 1032 hPa
Elevation 349
METAR KEVU 181615Z AUTO 19012G15KT 10SM CLR 16/M06 A3048 RMK AO2
Observed Flight Rules
Oct-18 @ 16:15 UTC
(22 minutes ago)
VFR
Wind Visibility
190° at 12 knots
 Gusting to 15 knots
10 miles
Clouds
  • Clear skies
Temperature Dewpoint
16°C / 61°F -6°C / 21°F
Humidity Altimeter Pressure
22% 30.48" Hg 1032 hPa